createdAt,value
2023-05-06T00:01:03.673Z,14.82
2023-05-06T00:03:32.552Z,14.78
2023-05-06T00:06:02.903Z,14.74
2023-05-06T00:08:32.617Z,14.74
2023-05-06T00:11:00.982Z,14.71
2023-05-06T00:13:29.707Z,14.70
2023-05-06T00:15:58.439Z,14.71
2023-05-06T00:18:27.111Z,14.74
2023-05-06T00:20:56.010Z,14.75
2023-05-06T00:23:24.689Z,14.75
2023-05-06T00:25:55.134Z,14.78
2023-05-06T00:28:23.802Z,14.76
2023-05-06T00:30:52.457Z,14.78
2023-05-06T00:33:21.214Z,14.77
2023-05-06T00:35:50.751Z,14.77
2023-05-06T00:38:19.574Z,14.76
2023-05-06T00:40:48.298Z,14.74
2023-05-06T00:43:18.133Z,14.72
2023-05-06T00:45:46.918Z,14.68
2023-05-06T00:48:17.296Z,14.67
2023-05-06T00:50:46.397Z,14.61
2023-05-06T00:53:15.073Z,14.56
2023-05-06T00:55:44.674Z,14.51
2023-05-06T00:58:13.968Z,14.47
2023-05-06T01:00:44.551Z,14.40
2023-05-06T01:03:13.495Z,14.32
2023-05-06T01:05:52.656Z,14.29
2023-05-06T01:08:28.790Z,14.22
2023-05-06T01:11:03.360Z,14.16
2023-05-06T01:13:39.998Z,14.13
2023-05-06T01:16:11.299Z,14.07
2023-05-06T01:18:40.968Z,14.03
2023-05-06T01:21:10.341Z,14.00
2023-05-06T01:23:58.057Z,14.02
2023-05-06T01:26:27.255Z,13.93
2023-05-06T01:28:57.082Z,13.89
2023-05-06T01:31:35.369Z,13.90
2023-05-06T01:34:16.238Z,13.90
2023-05-06T01:36:57.942Z,13.87
2023-05-06T01:39:30.991Z,13.84
2023-05-06T01:42:01.990Z,13.81
2023-05-06T01:44:35.023Z,13.80
2023-05-06T01:47:04.733Z,13.76
2023-05-06T01:49:33.867Z,13.74
2023-05-06T01:52:03.818Z,13.73
2023-05-06T01:54:33.817Z,13.72
2023-05-06T01:57:03.794Z,13.67
2023-05-06T01:59:32.505Z,13.64
2023-05-06T02:02:01.321Z,13.62
2023-05-06T02:04:29.790Z,13.59
2023-05-06T02:06:58.563Z,13.58
2023-05-06T02:09:27.238Z,13.56
2023-05-06T02:12:01.713Z,13.56
2023-05-06T02:14:30.470Z,13.56
2023-05-06T02:17:04.854Z,13.59
2023-05-06T02:19:33.612Z,13.55
2023-05-06T02:22:02.438Z,13.52
2023-05-06T02:24:31.207Z,13.46
2023-05-06T02:27:02.275Z,13.43
2023-05-06T02:29:31.566Z,13.39
2023-05-06T02:32:00.239Z,13.36
2023-05-06T02:34:28.690Z,13.33
2023-05-06T02:36:57.395Z,13.31
2023-05-06T02:39:26.066Z,13.28
2023-05-06T02:41:54.801Z,13.26
2023-05-06T02:44:24.617Z,13.22
2023-05-06T02:46:53.344Z,13.18
2023-05-06T02:49:22.063Z,13.17
2023-05-06T02:51:50.420Z,13.13
2023-05-06T02:54:19.125Z,13.11
2023-05-06T02:56:47.869Z,13.07
2023-05-06T02:59:17.374Z,13.04
2023-05-06T03:01:47.381Z,13.00
2023-05-06T03:04:16.271Z,12.93
2023-05-06T03:06:44.924Z,12.86
2023-05-06T03:09:13.381Z,12.78
2023-05-06T03:11:42.083Z,12.73
2023-05-06T03:14:10.996Z,12.71
2023-05-06T03:16:39.698Z,12.67
2023-05-06T03:19:10.210Z,12.63
2023-05-06T03:21:38.960Z,12.56
2023-05-06T03:24:08.132Z,12.52
2023-05-06T03:26:37.617Z,12.49
2023-05-06T03:29:06.872Z,12.46
2023-05-06T03:31:36.599Z,12.44
2023-05-06T03:34:05.325Z,12.44
2023-05-06T03:36:36.603Z,12.47
2023-05-06T03:39:05.298Z,12.47
2023-05-06T03:41:35.976Z,12.47
2023-05-06T03:44:04.860Z,12.47
2023-05-06T03:46:33.636Z,12.48
2023-05-06T03:49:02.844Z,12.47
2023-05-06T03:51:31.801Z,12.46
2023-05-06T03:54:01.726Z,12.47
2023-05-06T03:56:30.726Z,12.46
2023-05-06T03:59:00.460Z,12.45
2023-05-06T04:01:30.201Z,12.44
2023-05-06T04:03:58.955Z,12.44
2023-05-06T04:06:29.080Z,12.43
2023-05-06T04:08:57.921Z,12.42
2023-05-06T04:11:29.726Z,12.45
2023-05-06T04:13:59.606Z,12.45
2023-05-06T04:16:28.398Z,12.48
2023-05-06T04:18:57.466Z,12.52
2023-05-06T04:21:26.273Z,12.56
2023-05-06T04:24:00.541Z,12.71
2023-05-06T04:26:36.651Z,12.61
2023-05-06T04:29:06.968Z,12.61
2023-05-06T04:31:40.856Z,12.66
2023-05-06T04:34:12.341Z,12.69
2023-05-06T04:36:41.909Z,12.71
2023-05-06T04:39:21.728Z,12.75
2023-05-06T04:41:52.617Z,12.81
2023-05-06T04:44:28.915Z,12.82
2023-05-06T04:46:57.726Z,12.84
2023-05-06T04:49:26.437Z,12.85
2023-05-06T04:51:57.992Z,12.87
2023-05-06T04:54:27.448Z,12.88
2023-05-06T04:56:57.244Z,12.92
2023-05-06T04:59:26.178Z,12.91
2023-05-06T05:01:55.441Z,12.93
2023-05-06T05:04:24.240Z,12.94
2023-05-06T05:06:53.380Z,12.97
2023-05-06T05:09:22.242Z,13.00
2023-05-06T05:11:51.694Z,13.03
2023-05-06T05:14:22.430Z,13.08
2023-05-06T05:16:51.734Z,13.13
2023-05-06T05:19:21.299Z,13.19
2023-05-06T05:21:50.221Z,13.29
2023-05-06T05:24:19.560Z,13.34
2023-05-06T05:26:48.268Z,13.42
2023-05-06T05:29:18.767Z,13.51
2023-05-06T05:31:50.341Z,13.59
2023-05-06T05:34:19.927Z,13.68
2023-05-06T05:36:48.985Z,13.77
2023-05-06T05:39:17.859Z,13.86
2023-05-06T05:41:48.569Z,13.95
2023-05-06T05:44:17.737Z,14.03
2023-05-06T05:46:46.917Z,14.11
2023-05-06T05:49:19.690Z,14.21
2023-05-06T05:51:50.278Z,14.29
2023-05-06T05:54:20.231Z,14.38
2023-05-06T05:56:50.411Z,14.51
2023-05-06T05:59:19.109Z,14.60
2023-05-06T06:01:50.045Z,14.67
2023-05-06T06:04:19.876Z,14.76
2023-05-06T06:06:48.671Z,14.82
2023-05-06T06:09:17.934Z,14.91
2023-05-06T06:11:47.275Z,15.00
2023-05-06T06:14:16.021Z,15.06
2023-05-06T06:16:44.964Z,15.15
2023-05-06T06:19:14.782Z,15.23
2023-05-06T06:21:45.589Z,15.33
2023-05-06T06:24:15.058Z,15.41
2023-05-06T06:26:43.737Z,15.47
2023-05-06T06:29:12.545Z,15.55
2023-05-06T06:31:41.228Z,15.63
2023-05-06T06:34:12.473Z,15.73
2023-05-06T06:36:45.030Z,15.84
2023-05-06T06:39:14.895Z,15.94
2023-05-06T06:41:43.652Z,16.00
2023-05-06T06:44:12.376Z,16.10
2023-05-06T06:46:41.604Z,16.17
2023-05-06T06:49:10.408Z,16.25
2023-05-06T06:51:39.080Z,16.32
2023-05-06T06:54:07.834Z,16.40
2023-05-06T06:56:37.569Z,16.51
2023-05-06T06:59:06.376Z,16.58
2023-05-06T07:01:35.209Z,16.66
2023-05-06T07:04:05.978Z,16.77
2023-05-06T07:06:36.342Z,16.88
2023-05-06T07:09:05.129Z,17.04
2023-05-06T07:11:33.831Z,17.18
2023-05-06T07:14:03.596Z,17.37
2023-05-06T07:16:32.374Z,17.51
2023-05-06T07:19:01.566Z,17.75
2023-05-06T07:21:32.228Z,18.04
2023-05-06T07:24:01.151Z,18.44
2023-05-06T07:26:29.598Z,18.90
2023-05-06T07:28:58.306Z,19.34
2023-05-06T07:31:28.101Z,19.73
2023-05-06T07:33:58.352Z,19.99
2023-05-06T07:36:28.675Z,20.09
2023-05-06T07:38:57.381Z,20.22
2023-05-06T07:41:26.175Z,20.34
2023-05-06T07:43:54.856Z,20.42
2023-05-06T07:46:23.822Z,20.51
2023-05-06T07:48:53.622Z,20.64
2023-05-06T07:51:22.579Z,20.86
2023-05-06T07:53:51.251Z,21.19
2023-05-06T07:56:19.991Z,21.55
2023-05-06T07:58:49.267Z,21.89
2023-05-06T08:01:17.994Z,22.14
2023-05-06T08:03:46.795Z,22.37
2023-05-06T08:06:16.642Z,22.64
2023-05-06T08:08:46.486Z,23.00
2023-05-06T08:11:16.110Z,23.27
2023-05-06T08:13:46.081Z,23.38
2023-05-06T08:16:14.663Z,23.44
2023-05-06T08:18:43.493Z,23.54
2023-05-06T08:21:12.224Z,23.81
2023-05-06T08:23:41.993Z,24.05
2023-05-06T08:26:11.013Z,24.30
2023-05-06T08:28:39.693Z,24.47
2023-05-06T08:31:08.037Z,24.61
2023-05-06T08:33:36.791Z,24.63
2023-05-06T08:36:05.737Z,24.45
2023-05-06T08:38:34.396Z,24.24
2023-05-06T08:41:10.036Z,24.38
2023-05-06T08:43:42.581Z,24.47
2023-05-06T08:46:11.907Z,24.45
2023-05-06T08:48:40.667Z,24.55
2023-05-06T08:51:10.254Z,24.73
2023-05-06T08:53:43.763Z,25.05
2023-05-06T08:56:14.673Z,25.30
2023-05-06T08:58:46.936Z,25.55
2023-05-06T09:01:16.484Z,25.80
2023-05-06T09:03:45.247Z,26.01
2023-05-06T09:06:13.938Z,26.07
2023-05-06T09:08:42.678Z,26.16
2023-05-06T09:11:26.392Z,25.90
2023-05-06T09:14:11.941Z,25.36
2023-05-06T09:16:42.759Z,24.82
2023-05-06T09:19:11.893Z,24.54
2023-05-06T09:21:43.951Z,24.52
2023-05-06T09:24:14.527Z,24.94
2023-05-06T09:26:46.156Z,25.46
2023-05-06T09:29:14.752Z,25.98
2023-05-06T09:31:45.434Z,26.44
2023-05-06T09:34:15.428Z,26.77
2023-05-06T09:36:44.354Z,26.99
2023-05-06T09:39:13.090Z,27.11
2023-05-06T09:41:43.522Z,27.28
2023-05-06T09:44:13.224Z,27.64
2023-05-06T09:46:41.984Z,27.80
2023-05-06T09:49:11.030Z,27.99
2023-05-06T09:51:41.462Z,28.13
2023-05-06T09:54:10.779Z,28.26
2023-05-06T09:56:39.924Z,28.22
2023-05-06T09:59:11.175Z,28.26
2023-05-06T10:01:41.242Z,28.14
2023-05-06T10:04:10.858Z,28.22
2023-05-06T10:06:41.925Z,28.38
2023-05-06T10:09:11.269Z,28.40
2023-05-06T10:11:40.800Z,28.38
2023-05-06T10:14:11.793Z,28.20
2023-05-06T10:16:41.526Z,28.01
2023-05-06T10:19:10.289Z,27.75
2023-05-06T10:21:46.249Z,27.67
2023-05-06T10:24:19.517Z,27.74
2023-05-06T10:26:48.209Z,28.04
2023-05-06T10:29:19.794Z,28.61
2023-05-06T10:31:58.139Z,28.88
2023-05-06T10:34:27.036Z,28.75
2023-05-06T10:36:59.240Z,28.50
2023-05-06T10:39:28.457Z,28.17
2023-05-06T10:41:57.681Z,28.23
2023-05-06T10:45:03.500Z,28.88
2023-05-06T10:48:09.637Z,29.23
2023-05-06T10:50:38.331Z,29.34
2023-05-06T10:53:06.738Z,29.42
2023-05-06T10:55:37.687Z,29.64
2023-05-06T10:58:16.343Z,29.97
2023-05-06T11:00:55.551Z,30.15
2023-05-06T11:03:25.246Z,30.28
2023-05-06T11:05:54.311Z,30.30
2023-05-06T11:08:25.026Z,30.41
2023-05-06T11:10:54.101Z,30.58
2023-05-06T11:13:26.282Z,30.76
2023-05-06T11:15:57.080Z,31.08
2023-05-06T11:18:45.018Z,31.51
2023-05-06T11:21:41.554Z,31.68
2023-05-06T11:24:15.250Z,31.41
2023-05-06T11:26:44.595Z,31.03
2023-05-06T11:29:13.361Z,30.82
2023-05-06T11:31:45.366Z,30.95
2023-05-06T11:34:22.188Z,31.24
2023-05-06T11:37:03.730Z,31.38
2023-05-06T11:39:39.752Z,31.53
2023-05-06T11:42:09.659Z,31.50
2023-05-06T11:44:40.056Z,31.37
2023-05-06T11:47:10.490Z,31.43
2023-05-06T11:49:41.606Z,31.43
2023-05-06T11:52:11.682Z,31.41
2023-05-06T11:54:42.074Z,31.60
2023-05-06T11:57:10.835Z,31.80
2023-05-06T11:59:41.249Z,32.07
2023-05-06T12:02:15.549Z,32.16
2023-05-06T12:04:46.284Z,32.26
2023-05-06T12:07:17.093Z,32.06
2023-05-06T12:09:49.459Z,31.78
2023-05-06T12:12:22.163Z,31.65
2023-05-06T12:14:53.296Z,31.76
2023-05-06T12:17:23.695Z,31.80
2023-05-06T12:19:52.186Z,31.78
2023-05-06T12:22:22.681Z,31.74
2023-05-06T12:24:51.528Z,31.83
2023-05-06T12:27:33.463Z,31.99
2023-05-06T12:30:04.529Z,31.97
2023-05-06T12:32:34.711Z,32.09
2023-05-06T12:35:07.346Z,32.34
2023-05-06T12:37:36.205Z,32.36
2023-05-06T12:40:17.090Z,32.00
2023-05-06T12:42:47.743Z,31.64
2023-05-06T12:45:16.530Z,31.44
2023-05-06T12:47:55.954Z,31.56
2023-05-06T12:50:36.368Z,31.62
2023-05-06T12:53:05.681Z,31.60
2023-05-06T12:55:34.776Z,31.40
2023-05-06T12:58:03.957Z,31.05
2023-05-06T13:00:32.639Z,30.80
2023-05-06T13:03:02.470Z,30.72
2023-05-06T13:05:31.409Z,30.64
2023-05-06T13:08:00.061Z,30.60
2023-05-06T13:10:28.884Z,30.53
2023-05-06T13:12:57.629Z,30.45
2023-05-06T13:15:27.015Z,30.41
2023-05-06T13:17:57.130Z,30.38
2023-05-06T13:20:27.013Z,30.37
2023-05-06T13:22:55.530Z,30.26
2023-05-06T13:25:24.264Z,30.27
2023-05-06T13:27:54.019Z,30.19
2023-05-06T13:30:22.487Z,30.08
2023-05-06T13:32:51.238Z,30.29
2023-05-06T13:35:19.993Z,30.37
2023-05-06T13:37:49.688Z,30.44
2023-05-06T13:40:18.283Z,30.48
2023-05-06T13:42:46.641Z,30.71
2023-05-06T13:45:15.669Z,30.77
2023-05-06T13:47:44.379Z,30.64
2023-05-06T13:50:13.198Z,30.79
2023-05-06T13:52:41.935Z,30.96
2023-05-06T13:55:12.106Z,30.98
2023-05-06T13:57:40.800Z,31.11
2023-05-06T14:00:11.431Z,31.25
2023-05-06T14:02:40.559Z,31.55
2023-05-06T14:05:09.800Z,31.75
2023-05-06T14:07:40.456Z,31.70
2023-05-06T14:10:11.922Z,31.46
2023-05-06T14:12:40.967Z,30.90
2023-05-06T14:15:10.980Z,30.54
2023-05-06T14:17:39.957Z,30.25
2023-05-06T14:20:09.973Z,30.22
2023-05-06T14:22:41.418Z,30.08
2023-05-06T14:25:12.137Z,29.93
2023-05-06T14:27:41.267Z,29.86
2023-05-06T14:30:10.682Z,29.73
2023-05-06T14:32:39.513Z,29.77
2023-05-06T14:35:10.172Z,29.97
2023-05-06T14:37:39.045Z,30.18
2023-05-06T14:40:10.008Z,30.52
2023-05-06T14:42:39.885Z,30.69
2023-05-06T14:45:10.022Z,30.83
2023-05-06T14:47:39.681Z,30.90
2023-05-06T14:50:10.600Z,30.86
2023-05-06T14:52:40.204Z,30.81
2023-05-06T14:55:11.090Z,30.88
2023-05-06T14:57:41.147Z,31.11
2023-05-06T15:00:14.656Z,31.21
2023-05-06T15:02:43.247Z,31.20
2023-05-06T15:05:13.056Z,31.18
2023-05-06T15:07:42.494Z,31.33
2023-05-06T15:10:11.660Z,31.32
2023-05-06T15:12:41.486Z,31.31
2023-05-06T15:15:11.110Z,31.57
2023-05-06T15:17:41.646Z,31.67
2023-05-06T15:20:11.544Z,31.67
2023-05-06T15:22:40.265Z,31.53
2023-05-06T15:25:16.677Z,31.80
2023-05-06T15:27:52.470Z,32.38
2023-05-06T15:30:21.374Z,32.84
2023-05-06T15:32:50.067Z,32.86
2023-05-06T15:35:18.789Z,32.53
2023-05-06T15:37:47.424Z,31.94
2023-05-06T15:40:15.853Z,31.09
2023-05-06T15:42:44.750Z,30.20
2023-05-06T15:45:14.703Z,29.54
2023-05-06T15:47:43.368Z,29.03
2023-05-06T15:50:21.310Z,28.63
2023-05-06T15:53:01.049Z,28.22
2023-05-06T15:55:30.004Z,27.82
2023-05-06T15:58:00.776Z,27.58
2023-05-06T16:00:30.954Z,27.42
2023-05-06T16:02:59.723Z,27.34
2023-05-06T16:05:28.486Z,27.27
2023-05-06T16:07:57.263Z,27.18
2023-05-06T16:10:25.961Z,27.08
2023-05-06T16:12:54.755Z,26.90
2023-05-06T16:15:23.586Z,26.66
2023-05-06T16:17:53.340Z,26.60
2023-05-06T16:20:22.151Z,26.50
2023-05-06T16:22:51.379Z,26.41
2023-05-06T16:25:20.118Z,26.28
2023-05-06T16:27:49.345Z,26.15
2023-05-06T16:30:18.403Z,26.03
2023-05-06T16:32:47.130Z,25.93
2023-05-06T16:35:18.297Z,25.89
2023-05-06T16:37:47.001Z,25.84
2023-05-06T16:40:20.849Z,25.85
2023-05-06T16:42:50.076Z,25.79
2023-05-06T16:45:19.178Z,25.77
2023-05-06T16:47:48.293Z,25.78
2023-05-06T16:50:18.340Z,25.79
2023-05-06T16:52:47.631Z,25.99
2023-05-06T16:55:16.221Z,26.36
2023-05-06T16:57:44.564Z,26.54
2023-05-06T17:00:15.414Z,26.57
2023-05-06T17:02:44.270Z,26.45
2023-05-06T17:05:13.009Z,26.32
2023-05-06T17:07:42.825Z,26.20
2023-05-06T17:10:12.211Z,26.09
2023-05-06T17:12:41.669Z,25.99
2023-05-06T17:15:11.247Z,25.90
2023-05-06T17:17:40.786Z,25.78
2023-05-06T17:20:10.782Z,25.67
2023-05-06T17:22:39.377Z,25.48
2023-05-06T17:25:10.521Z,25.32
2023-05-06T17:27:38.950Z,25.18
2023-05-06T17:30:10.520Z,25.08
2023-05-06T17:32:39.391Z,24.96
2023-05-06T17:35:08.865Z,24.83
2023-05-06T17:37:37.813Z,24.71
2023-05-06T17:40:09.537Z,24.64
2023-05-06T17:42:38.280Z,24.52
2023-05-06T17:45:08.123Z,24.42
2023-05-06T17:47:37.001Z,24.37
2023-05-06T17:50:06.497Z,24.28
2023-05-06T17:52:35.298Z,24.21
2023-05-06T17:55:18.974Z,24.12
2023-05-06T17:57:49.178Z,24.06
2023-05-06T18:00:18.497Z,23.99
2023-05-06T18:02:47.202Z,23.91
2023-05-06T18:05:16.096Z,23.84
2023-05-06T18:07:44.955Z,23.76
2023-05-06T18:10:14.148Z,23.68
2023-05-06T18:12:45.234Z,23.62
2023-05-06T18:15:15.534Z,23.56
2023-05-06T18:17:44.338Z,23.51
2023-05-06T18:20:14.120Z,23.44
2023-05-06T18:22:43.078Z,23.38
2023-05-06T18:25:12.070Z,23.33
2023-05-06T18:27:40.937Z,23.27
2023-05-06T18:30:10.100Z,23.22
2023-05-06T18:32:39.868Z,23.19
2023-05-06T18:35:10.982Z,23.12
2023-05-06T18:37:40.058Z,23.06
2023-05-06T18:40:10.009Z,23.02
2023-05-06T18:42:38.742Z,22.94
2023-05-06T18:45:09.042Z,22.92
2023-05-06T18:47:40.190Z,22.86
2023-05-06T18:50:10.175Z,22.82
2023-05-06T18:52:38.829Z,22.75
2023-05-06T18:55:09.008Z,22.69
2023-05-06T18:57:37.921Z,22.63
2023-05-06T19:00:08.306Z,22.59
2023-05-06T19:02:37.885Z,22.52
2023-05-06T19:05:09.445Z,22.47
2023-05-06T19:07:38.259Z,22.40
2023-05-06T19:10:08.353Z,22.33
2023-05-06T19:12:36.764Z,22.26
2023-05-06T19:15:06.252Z,22.24
2023-05-06T19:17:35.030Z,22.18
2023-05-06T19:20:05.144Z,22.14
2023-05-06T19:22:34.916Z,22.10
2023-05-06T19:25:03.498Z,22.04
2023-05-06T19:27:32.278Z,22.01
2023-05-06T19:30:00.927Z,21.95
2023-05-06T19:32:29.683Z,21.91
2023-05-06T19:34:59.038Z,21.86
2023-05-06T19:37:30.317Z,21.82
2023-05-06T19:40:00.275Z,21.80
2023-05-06T19:42:29.055Z,21.73
2023-05-06T19:44:57.850Z,21.73
2023-05-06T19:47:27.300Z,21.67
2023-05-06T19:49:56.032Z,21.61
2023-05-06T19:52:25.280Z,21.57
2023-05-06T19:54:54.439Z,21.52
2023-05-06T19:57:24.226Z,21.50
2023-05-06T19:59:52.582Z,21.46
2023-05-06T20:02:21.431Z,21.42
2023-05-06T20:04:50.644Z,21.37
2023-05-06T20:07:20.982Z,21.32
2023-05-06T20:09:55.099Z,21.25
2023-05-06T20:12:27.301Z,21.19
2023-05-06T20:14:56.262Z,21.12
2023-05-06T20:17:24.829Z,21.07
2023-05-06T20:19:57.186Z,21.03
2023-05-06T20:22:25.992Z,20.98
2023-05-06T20:25:07.972Z,20.93
2023-05-06T20:27:37.985Z,20.89
2023-05-06T20:30:09.611Z,20.84
2023-05-06T20:32:38.618Z,20.80
2023-05-06T20:35:08.840Z,20.77
2023-05-06T20:37:38.144Z,20.72
2023-05-06T20:40:09.634Z,20.67
2023-05-06T20:42:39.720Z,20.61
2023-05-06T20:45:09.850Z,20.59
2023-05-06T20:47:38.817Z,20.55
2023-05-06T20:50:08.185Z,20.51
2023-05-06T20:52:40.902Z,20.47
2023-05-06T20:55:12.949Z,20.44
2023-05-06T20:57:46.259Z,20.42
2023-05-06T21:00:15.578Z,20.38
2023-05-06T21:02:44.107Z,20.35
2023-05-06T21:05:13.158Z,20.33
2023-05-06T21:07:41.910Z,20.28
2023-05-06T21:10:11.851Z,20.25
2023-05-06T21:12:40.379Z,20.20
2023-05-06T21:15:11.764Z,20.18
2023-05-06T21:17:40.851Z,20.12
2023-05-06T21:20:10.740Z,20.10
2023-05-06T21:22:39.469Z,20.05
2023-05-06T21:25:09.942Z,20.01
2023-05-06T21:27:38.862Z,19.95
2023-05-06T21:30:10.655Z,19.91
2023-05-06T21:32:39.399Z,19.85
2023-05-06T21:35:08.952Z,19.83
2023-05-06T21:37:37.807Z,19.78
2023-05-06T21:40:07.564Z,19.76
2023-05-06T21:42:35.931Z,19.71
2023-05-06T21:45:04.972Z,19.67
2023-05-06T21:47:34.791Z,19.62
2023-05-06T21:50:03.391Z,19.58
2023-05-06T21:52:32.525Z,19.54
2023-05-06T21:55:01.020Z,19.47
2023-05-06T21:57:29.899Z,19.41
2023-05-06T21:59:58.682Z,19.34
2023-05-06T22:02:27.488Z,19.29
2023-05-06T22:04:57.260Z,19.24
2023-05-06T22:07:26.007Z,19.21
2023-05-06T22:09:54.360Z,19.18
2023-05-06T22:12:23.014Z,19.13
2023-05-06T22:14:51.707Z,19.09
2023-05-06T22:17:20.231Z,19.05
2023-05-06T22:19:48.943Z,19.03
2023-05-06T22:22:19.352Z,19.01
2023-05-06T22:24:48.593Z,18.98
2023-05-06T22:27:17.289Z,18.92
2023-05-06T22:29:45.967Z,18.85
2023-05-06T22:32:14.641Z,18.81
2023-05-06T22:34:43.278Z,18.76
2023-05-06T22:37:12.854Z,18.71
2023-05-06T22:39:42.650Z,18.67
2023-05-06T22:42:11.139Z,18.61
2023-05-06T22:44:39.800Z,18.59
2023-05-06T22:47:08.138Z,18.54
2023-05-06T22:49:36.873Z,18.52
2023-05-06T22:52:05.820Z,18.49
2023-05-06T22:54:34.802Z,18.47
2023-05-06T22:57:04.896Z,18.47
2023-05-06T22:59:33.627Z,18.43
2023-05-06T23:02:02.568Z,18.40
2023-05-06T23:04:31.265Z,18.38
2023-05-06T23:06:59.948Z,18.35
2023-05-06T23:09:28.776Z,18.33
2023-05-06T23:11:57.449Z,18.32
2023-05-06T23:14:27.165Z,18.31
2023-05-06T23:16:55.873Z,18.29
2023-05-06T23:19:24.587Z,18.27
2023-05-06T23:21:53.323Z,18.24
2023-05-06T23:24:21.992Z,18.23
2023-05-06T23:26:51.897Z,18.20
2023-05-06T23:29:20.590Z,18.17
2023-05-06T23:31:50.875Z,18.15
2023-05-06T23:34:19.636Z,18.13
2023-05-06T23:36:48.329Z,18.12
2023-05-06T23:39:17.494Z,18.10
2023-05-06T23:41:46.219Z,18.06
2023-05-06T23:44:15.019Z,18.02
2023-05-06T23:46:43.759Z,17.99
2023-05-06T23:49:13.599Z,17.98
2023-05-06T23:51:42.266Z,17.95
2023-05-06T23:54:10.931Z,17.94
2023-05-06T23:56:40.253Z,17.92
2023-05-06T23:59:09.684Z,17.88
